Aquasco, Maryland
Current Conditions -  °F | °C
As of 2:58 PM on Friday 31 Oct 2014 (Local Time) from KADW Reporting Station
Overcast Overcast  
Wind Chill: 54°   Ceiling: 5500
Heat Index: 54°   Visibility: 10mi
Dew Point: 34°   Wind: 7mph
Humidity: 48%   Direction: 50°NE
Pressure: 29.88"   Gusts: NA
Location:  38.58°N, 76.73°W
Report Text: KADW 311858Z AUTO 05006KT 10SM OVC055 12/01 A2988 RMK AO2 SLP126 T01200012 $
Loading
Personal Weather Stations






























Interactive Weather Map
Tropical Storm Tracking
New forecast layout! Learn more

10-Day Weather Forecast

Advertisements
Track Severe Weather on mobile